createdAt,value
2018-05-15T00:01:46.570Z,17.82
2018-05-15T00:02:46.578Z,17.84
2018-05-15T00:04:39.529Z,17.71
2018-05-15T00:05:39.532Z,17.84
2018-05-15T00:07:32.483Z,17.73
2018-05-15T00:08:32.477Z,17.73
2018-05-15T00:10:25.406Z,17.73
2018-05-15T00:11:25.421Z,17.59
2018-05-15T00:13:18.380Z,17.57
2018-05-15T00:14:18.374Z,17.63
2018-05-15T00:16:11.307Z,17.48
2018-05-15T00:17:11.325Z,17.46
2018-05-15T00:19:04.282Z,17.50
2018-05-15T00:20:04.284Z,17.36
2018-05-15T00:21:58.171Z,17.30
2018-05-15T00:22:57.220Z,17.33
2018-05-15T00:24:50.187Z,17.36
2018-05-15T00:25:50.177Z,17.32
2018-05-15T00:27:43.187Z,17.38
2018-05-15T00:28:43.189Z,17.30
2018-05-15T00:30:36.129Z,17.23
2018-05-15T00:31:36.139Z,17.25
2018-05-15T00:33:29.104Z,17.26
2018-05-15T00:34:29.090Z,17.26
2018-05-15T00:36:22.020Z,17.14
2018-05-15T00:37:22.034Z,17.08
2018-05-15T00:39:14.993Z,17.11
2018-05-15T00:40:14.989Z,17.11
2018-05-15T00:42:07.915Z,17.08
2018-05-15T00:43:07.932Z,17.08
2018-05-15T00:45:00.905Z,17.08
2018-05-15T00:46:00.888Z,16.99
2018-05-15T00:47:53.840Z,17.03
2018-05-15T00:48:53.825Z,17.13
2018-05-15T00:50:46.774Z,17.08
2018-05-15T00:51:46.773Z,17.13
2018-05-15T00:53:39.725Z,17.04
2018-05-15T00:54:39.721Z,17.06
2018-05-15T00:56:32.659Z,16.96
2018-05-15T00:57:32.670Z,17.03
2018-05-15T00:59:25.628Z,17.04
2018-05-15T01:00:25.613Z,17.00
2018-05-15T01:02:18.548Z,16.96
2018-05-15T01:03:18.561Z,17.04
2018-05-15T01:05:11.515Z,17.03
2018-05-15T01:06:11.509Z,17.04
2018-05-15T01:08:04.461Z,17.00
2018-05-15T01:09:04.457Z,17.03
2018-05-15T01:10:57.418Z,16.92
2018-05-15T01:11:57.413Z,16.92
2018-05-15T01:13:51.358Z,16.95
2018-05-15T01:14:51.353Z,16.89
2018-05-15T01:16:44.304Z,16.89
2018-05-15T01:17:44.302Z,16.83
2018-05-15T01:19:37.253Z,16.85
2018-05-15T01:20:38.189Z,16.83
2018-05-15T01:22:30.180Z,16.86
2018-05-15T01:23:30.203Z,16.92
2018-05-15T01:25:23.148Z,16.83
2018-05-15T01:26:23.142Z,16.80
2018-05-15T01:28:16.093Z,16.75
2018-05-15T01:29:16.090Z,16.73
2018-05-15T01:31:09.039Z,16.70
2018-05-15T01:32:09.032Z,16.73
2018-05-15T01:34:01.993Z,16.70
2018-05-15T01:35:01.984Z,16.67
2018-05-15T01:36:54.929Z,16.60
2018-05-15T01:37:54.929Z,16.63
2018-05-15T01:39:47.878Z,16.59
2018-05-15T01:40:47.873Z,16.60
2018-05-15T01:42:40.808Z,16.53
2018-05-15T01:43:40.817Z,16.44
2018-05-15T01:45:33.778Z,16.18
2018-05-15T01:46:33.769Z,16.20
2018-05-15T03:48:09.279Z,14.86
2018-05-15T03:49:09.264Z,14.75
2018-05-15T03:51:02.197Z,14.90
2018-05-15T03:52:02.186Z,14.86
2018-05-15T03:53:55.105Z,14.84
2018-05-15T03:54:55.114Z,14.78
2018-05-15T03:56:48.052Z,14.78
2018-05-15T03:57:48.041Z,14.78
2018-05-15T03:59:40.965Z,14.83
2018-05-15T04:00:40.972Z,14.74
2018-05-15T04:02:33.917Z,14.75
2018-05-15T04:03:33.912Z,14.71
2018-05-15T04:05:26.852Z,14.83
2018-05-15T04:06:26.847Z,14.71
2018-05-15T04:08:19.777Z,14.72
2018-05-15T04:09:19.786Z,14.83
2018-05-15T04:11:12.824Z,14.78
2018-05-15T04:12:12.727Z,14.78
2018-05-15T04:14:05.661Z,14.74
2018-05-15T04:15:05.670Z,14.78
2018-05-15T04:16:58.621Z,14.83
2018-05-15T04:17:58.615Z,14.75
2018-05-15T04:19:51.545Z,14.72
2018-05-15T04:20:51.552Z,14.65
2018-05-15T04:22:44.500Z,14.65
2018-05-15T04:23:44.495Z,14.61
2018-05-15T04:25:37.439Z,14.78
2018-05-15T04:26:37.437Z,14.86
2018-05-15T04:28:30.376Z,14.84
2018-05-15T04:29:30.376Z,14.75
2018-05-15T04:31:23.335Z,14.78
2018-05-15T04:32:23.320Z,14.78
2018-05-15T04:34:16.254Z,14.72
2018-05-15T04:35:16.279Z,14.61
2018-05-15T04:37:09.220Z,14.75
2018-05-15T04:38:09.213Z,14.72
2018-05-15T04:40:02.148Z,14.78
2018-05-15T04:41:02.156Z,14.78
2018-05-15T04:42:55.100Z,14.86
2018-05-15T04:43:55.144Z,14.93
2018-05-15T04:45:48.051Z,15.09
2018-05-15T04:46:48.055Z,15.08
2018-05-15T04:48:40.974Z,15.15
2018-05-15T04:49:40.991Z,15.08
2018-05-15T04:51:33.936Z,15.17
2018-05-15T04:52:33.932Z,15.11
2018-05-15T04:54:26.868Z,15.28
2018-05-15T04:55:26.888Z,15.31
2018-05-15T04:57:19.835Z,15.31
2018-05-15T04:58:19.820Z,15.33
2018-05-15T05:00:12.753Z,15.52
2018-05-15T05:01:12.767Z,15.59
2018-05-15T05:03:05.723Z,15.70
2018-05-15T05:04:05.718Z,15.68
2018-05-15T05:05:58.664Z,15.68
2018-05-15T05:06:58.659Z,15.74
2018-05-15T05:08:51.594Z,15.64
2018-05-15T05:09:51.604Z,15.61
2018-05-15T05:11:44.565Z,15.61
2018-05-15T05:12:44.549Z,15.61
2018-05-15T05:14:37.484Z,15.64
2018-05-15T05:15:37.507Z,15.67
2018-05-15T05:17:30.453Z,15.66
2018-05-15T05:18:30.454Z,15.70
2018-05-15T05:20:23.388Z,15.74
2018-05-15T05:21:23.410Z,15.74
2018-05-15T05:23:16.351Z,15.82
2018-05-15T05:24:16.345Z,15.88
2018-05-15T05:26:09.297Z,15.94
2018-05-15T05:27:09.381Z,15.85
2018-05-15T05:29:02.224Z,15.94
2018-05-15T05:30:02.238Z,15.97
2018-05-15T05:31:55.233Z,16.04
2018-05-15T05:32:55.220Z,16.14
2018-05-15T05:34:48.154Z,16.20
2018-05-15T05:35:48.169Z,16.22
2018-05-15T05:37:41.122Z,16.42
2018-05-15T05:38:41.118Z,16.53
2018-05-15T05:40:34.063Z,17.00
2018-05-15T05:41:34.067Z,18.03
2018-05-15T05:43:27.020Z,20.59
2018-05-15T05:44:27.015Z,21.83
2018-05-15T05:46:20.048Z,22.65
2018-05-15T05:47:19.969Z,23.32
2018-05-15T05:49:13.416Z,24.12
2018-05-15T05:50:13.416Z,24.73
2018-05-15T05:52:06.486Z,24.87
2018-05-15T05:53:06.380Z,25.05
2018-05-15T05:54:59.328Z,24.76
2018-05-15T05:55:59.369Z,24.52
2018-05-15T05:57:52.297Z,24.77
2018-05-15T05:58:52.303Z,24.77
2018-05-15T06:00:45.254Z,25.72
2018-05-15T06:01:45.260Z,26.20
2018-05-15T06:03:38.223Z,25.65
2018-05-15T06:04:38.230Z,25.84
2018-05-15T06:06:31.219Z,25.84
2018-05-15T06:07:31.207Z,25.80
2018-05-15T06:09:24.136Z,25.50
2018-05-15T06:10:24.154Z,25.97
2018-05-15T06:12:17.247Z,26.77
2018-05-15T06:13:17.244Z,26.55
2018-05-15T06:15:10.247Z,25.98
2018-05-15T06:16:10.285Z,26.42
2018-05-15T06:18:03.324Z,26.11
2018-05-15T06:19:03.328Z,26.76
2018-05-15T06:20:56.357Z,27.06
2018-05-15T06:21:56.388Z,27.33
2018-05-15T06:23:49.306Z,27.59
2018-05-15T06:24:49.271Z,27.23
2018-05-15T06:26:42.222Z,27.13
2018-05-15T06:27:42.247Z,27.17
2018-05-15T06:29:35.221Z,27.64
2018-05-15T06:30:35.227Z,27.82
2018-05-15T06:32:28.293Z,28.14
2018-05-15T06:33:28.199Z,28.26
2018-05-15T06:35:21.158Z,28.70
2018-05-15T06:36:21.168Z,28.88
2018-05-15T06:38:14.140Z,28.75
2018-05-15T06:39:14.144Z,28.77
2018-05-15T06:41:07.096Z,28.48
2018-05-15T06:42:07.121Z,28.48
2018-05-15T06:44:00.100Z,27.82
2018-05-15T06:45:00.100Z,27.71
2018-05-15T06:46:53.055Z,26.95
2018-05-15T06:47:53.075Z,26.98
2018-05-15T06:49:46.051Z,26.96
2018-05-15T06:50:46.052Z,26.28
2018-05-15T06:52:39.028Z,25.83
2018-05-15T06:53:39.037Z,25.86
2018-05-15T06:55:31.991Z,25.94
2018-05-15T06:56:32.011Z,26.04
2018-05-15T06:58:24.989Z,26.95
2018-05-15T06:59:24.994Z,26.76
2018-05-15T07:01:17.945Z,26.04
2018-05-15T07:02:17.974Z,25.90
2018-05-15T07:04:10.943Z,25.90
2018-05-15T07:05:10.950Z,25.99
2018-05-15T07:07:03.899Z,25.87
2018-05-15T07:08:03.926Z,25.97
2018-05-15T07:09:56.894Z,26.27
2018-05-15T07:10:56.916Z,25.97
2018-05-15T07:12:49.872Z,25.98
2018-05-15T07:13:49.869Z,25.59
2018-05-15T07:15:42.826Z,25.90
2018-05-15T07:16:42.851Z,26.02
2018-05-15T07:18:35.883Z,26.21
2018-05-15T07:19:35.969Z,26.49
2018-05-15T07:21:28.921Z,27.06
2018-05-15T07:22:28.945Z,27.05
2018-05-15T07:24:22.003Z,27.11
2018-05-15T07:25:22.005Z,26.89
2018-05-15T07:27:15.049Z,26.64
2018-05-15T07:28:14.980Z,26.89
2018-05-15T07:30:07.961Z,27.13
2018-05-15T07:31:08.252Z,27.11
2018-05-15T07:33:01.110Z,26.96
2018-05-15T07:34:01.154Z,27.13
2018-05-15T07:35:54.066Z,26.98
2018-05-15T07:36:54.096Z,26.83
2018-05-15T07:38:47.141Z,26.99
2018-05-15T07:39:47.148Z,26.81
2018-05-15T07:41:40.174Z,25.97
2018-05-15T07:42:40.199Z,26.09
2018-05-15T07:44:33.178Z,25.47
2018-05-15T07:45:33.178Z,25.49
2018-05-15T07:47:26.140Z,25.38
2018-05-15T07:48:26.165Z,25.67
2018-05-15T07:50:19.171Z,25.39
2018-05-15T07:51:19.144Z,25.16
2018-05-15T07:53:12.110Z,24.60
2018-05-15T07:54:12.115Z,24.47
2018-05-15T07:56:05.060Z,24.08
2018-05-15T07:57:05.086Z,24.05
2018-05-15T07:58:58.072Z,23.92
2018-05-15T07:59:58.098Z,24.12
2018-05-15T08:01:51.022Z,24.50
2018-05-15T08:02:51.050Z,24.79
2018-05-15T08:04:44.204Z,25.25
2018-05-15T08:05:44.170Z,25.65
2018-05-15T08:07:37.162Z,25.47
2018-05-15T08:08:37.182Z,25.02
2018-05-15T08:10:30.240Z,24.12
2018-05-15T08:11:30.241Z,24.19
2018-05-15T08:13:23.291Z,23.53
2018-05-15T08:14:23.293Z,23.57
2018-05-15T08:16:16.412Z,23.75
2018-05-15T08:17:16.384Z,23.57
2018-05-15T08:19:09.402Z,23.95
2018-05-15T08:20:09.406Z,23.98
2018-05-15T08:22:02.440Z,23.72
2018-05-15T08:23:02.465Z,23.55
2018-05-15T08:24:55.514Z,23.61
2018-05-15T08:25:55.514Z,23.53
2018-05-15T08:27:48.553Z,23.53
2018-05-15T08:28:48.573Z,23.58
2018-05-15T08:30:41.626Z,23.46
2018-05-15T08:31:41.658Z,23.65
2018-05-15T08:33:34.687Z,24.00
2018-05-15T08:34:34.678Z,24.17
2018-05-15T08:36:27.714Z,24.45
2018-05-15T08:38:45.220Z,24.60
